Purling, New York
Current Conditions -  °F | °C
As of 4:51 AM on Wednesday 26 Nov 2014 (Local Time) from KALB Reporting Station
Overcast Overcast  
Wind Chill: 32°   Ceiling: 16000
Heat Index: 38°   Visibility: 10mi
Dew Point: 26°   Wind: 8mph
Humidity: 62%   Direction: 260°W
Pressure: 30.21"   Gusts: NA
Location:  42.28°N, 74.01°W
Report Text: KALB 260951Z 26007KT 10SM FEW040 OVC160 03/M03 A3021 RMK AO2 SLP231 T00331033
Loading
Personal Weather Stations






























Interactive Weather Map New forecast layout! Learn more

10-Day Weather Forecast

Advertisements
Track Severe Weather on mobile